ROYN(METAR)
12/04 19:00
METAR ROYN 041000Z AUTO 02016KT 6000 BKN011 OVC031 25/23 Q1016 RMK
A3002=
戻る
トップページへ戻る
IMOC Co,.Ltd.